sensor_id;sensor_type;location;lat;lon;timestamp;pressure;altitude;pressure_sealevel;temperature;humidity
63447;BME280;49577;49.872;6.190;2023-03-14T00:00:47;97411.75;;;9.47;82.18
63447;BME280;49577;49.872;6.190;2023-03-14T00:03:13;97408.89;;;9.47;82.02
63447;BME280;49577;49.872;6.190;2023-03-14T00:05:38;97399.45;;;9.48;82.02
63447;BME280;49577;49.872;6.190;2023-03-14T00:08:03;97391.61;;;9.48;82.04
63447;BME280;49577;49.872;6.190;2023-03-14T00:10:29;97381.88;;;9.48;81.74
63447;BME280;49577;49.872;6.190;2023-03-14T00:12:54;97382.23;;;9.47;81.78
63447;BME280;49577;49.872;6.190;2023-03-14T00:15:19;97385.38;;;9.45;81.80
63447;BME280;49577;49.872;6.190;2023-03-14T00:17:44;97379.79;;;9.44;81.72
63447;BME280;49577;49.872;6.190;2023-03-14T00:20:10;97371.86;;;9.41;81.64
63447;BME280;49577;49.872;6.190;2023-03-14T00:22:40;97373.98;;;9.39;81.61
63447;BME280;49577;49.872;6.190;2023-03-14T00:25:07;97372.08;;;9.36;81.54
63447;BME280;49577;49.872;6.190;2023-03-14T00:27:33;97372.98;;;9.36;81.30
63447;BME280;49577;49.872;6.190;2023-03-14T00:29:58;97371.24;;;9.36;80.99
63447;BME280;49577;49.872;6.190;2023-03-14T00:32:23;97372.42;;;9.36;80.74
63447;BME280;49577;49.872;6.190;2023-03-14T00:34:49;97372.30;;;9.36;80.68
63447;BME280;49577;49.872;6.190;2023-03-14T00:37:14;97362.08;;;9.35;80.48
63447;BME280;49577;49.872;6.190;2023-03-14T00:39:40;97363.48;;;9.35;80.21
63447;BME280;49577;49.872;6.190;2023-03-14T00:42:05;97364.11;;;9.34;80.20
63447;BME280;49577;49.872;6.190;2023-03-14T00:44:30;97365.81;;;9.34;80.13
63447;BME280;49577;49.872;6.190;2023-03-14T00:46:57;97374.05;;;9.34;79.97
63447;BME280;49577;49.872;6.190;2023-03-14T00:49:22;97374.38;;;9.34;79.94
63447;BME280;49577;49.872;6.190;2023-03-14T00:51:47;97364.04;;;9.33;79.83
63447;BME280;49577;49.872;6.190;2023-03-14T00:54:13;97354.83;;;9.32;79.86
63447;BME280;49577;49.872;6.190;2023-03-14T00:56:38;97367.58;;;9.32;79.89
63447;BME280;49577;49.872;6.190;2023-03-14T00:59:03;97360.73;;;9.33;79.80
63447;BME280;49577;49.872;6.190;2023-03-14T01:01:29;97362.45;;;9.35;79.63
63447;BME280;49577;49.872;6.190;2023-03-14T01:03:55;97371.77;;;9.36;79.45
63447;BME280;49577;49.872;6.190;2023-03-14T01:06:23;97376.04;;;9.37;79.35
63447;BME280;49577;49.872;6.190;2023-03-14T01:08:49;97384.00;;;9.38;79.47
63447;BME280;49577;49.872;6.190;2023-03-14T01:11:26;97388.84;;;9.38;79.53
63447;BME280;49577;49.872;6.190;2023-03-14T01:13:52;97375.17;;;9.37;79.52
63447;BME280;49577;49.872;6.190;2023-03-14T01:16:19;97390.06;;;9.36;79.44
63447;BME280;49577;49.872;6.190;2023-03-14T01:18:46;97384.31;;;9.36;79.33
63447;BME280;49577;49.872;6.190;2023-03-14T01:21:17;97372.88;;;9.35;79.24
63447;BME280;49577;49.872;6.190;2023-03-14T01:23:44;97374.38;;;9.36;79.38
63447;BME280;49577;49.872;6.190;2023-03-14T01:26:11;97382.27;;;9.35;79.33
63447;BME280;49577;49.872;6.190;2023-03-14T01:28:37;97384.95;;;9.37;79.15
63447;BME280;49577;49.872;6.190;2023-03-14T01:31:08;97385.13;;;9.37;79.11
63447;BME280;49577;49.872;6.190;2023-03-14T01:33:34;97388.54;;;9.38;79.07
63447;BME280;49577;49.872;6.190;2023-03-14T01:36:00;97375.11;;;9.38;78.96
63447;BME280;49577;49.872;6.190;2023-03-14T01:38:28;97377.13;;;9.39;78.73
63447;BME280;49577;49.872;6.190;2023-03-14T01:40:53;97378.81;;;9.39;78.74
63447;BME280;49577;49.872;6.190;2023-03-14T01:43:19;97373.84;;;9.39;78.71
63447;BME280;49577;49.872;6.190;2023-03-14T01:48:25;97377.52;;;9.34;78.62
63447;BME280;49577;49.872;6.190;2023-03-14T01:50:52;97380.66;;;9.32;78.67
63447;BME280;49577;49.872;6.190;2023-03-14T01:53:17;97383.66;;;9.30;78.60
63447;BME280;49577;49.872;6.190;2023-03-14T01:55:47;97380.88;;;9.30;78.67
63447;BME280;49577;49.872;6.190;2023-03-14T01:58:13;97375.92;;;9.31;78.56
63447;BME280;49577;49.872;6.190;2023-03-14T02:00:39;97374.01;;;9.32;78.54
63447;BME280;49577;49.872;6.190;2023-03-14T02:03:14;97368.81;;;9.32;78.96
63447;BME280;49577;49.872;6.190;2023-03-14T02:05:42;97361.27;;;9.29;79.74
63447;BME280;49577;49.872;6.190;2023-03-14T02:08:15;97367.50;;;9.22;80.38
63447;BME280;49577;49.872;6.190;2023-03-14T02:10:44;97361.55;;;9.15;80.86
63447;BME280;49577;49.872;6.190;2023-03-14T02:13:11;97357.95;;;9.09;81.22
63447;BME280;49577;49.872;6.190;2023-03-14T02:15:37;97357.23;;;9.03;81.65
63447;BME280;49577;49.872;6.190;2023-03-14T02:18:04;97348.67;;;8.98;82.01
63447;BME280;49577;49.872;6.190;2023-03-14T02:23:11;97344.98;;;8.91;82.69
63447;BME280;49577;49.872;6.190;2023-03-14T02:28:31;97326.11;;;8.82;83.38
63447;BME280;49577;49.872;6.190;2023-03-14T02:30:56;97324.68;;;8.78;83.67
63447;BME280;49577;49.872;6.190;2023-03-14T02:33:22;97323.95;;;8.75;84.11
63447;BME280;49577;49.872;6.190;2023-03-14T02:36:02;97315.66;;;8.70;84.21
63447;BME280;49577;49.872;6.190;2023-03-14T02:39:03;97312.01;;;8.67;84.58
63447;BME280;49577;49.872;6.190;2023-03-14T02:41:31;97308.45;;;8.62;85.03
63447;BME280;49577;49.872;6.190;2023-03-14T02:43:57;97314.94;;;8.59;85.31
63447;BME280;49577;49.872;6.190;2023-03-14T02:46:22;97308.61;;;8.56;85.87
63447;BME280;49577;49.872;6.190;2023-03-14T02:51:13;97295.81;;;8.51;86.15
63447;BME280;49577;49.872;6.190;2023-03-14T02:53:39;97294.73;;;8.50;86.21
63447;BME280;49577;49.872;6.190;2023-03-14T02:56:07;97284.38;;;8.49;86.24
63447;BME280;49577;49.872;6.190;2023-03-14T02:58:32;97286.95;;;8.48;86.44
63447;BME280;49577;49.872;6.190;2023-03-14T03:00:58;97288.49;;;8.46;86.46
63447;BME280;49577;49.872;6.190;2023-03-14T03:03:23;97292.76;;;8.45;86.60
63447;BME280;49577;49.872;6.190;2023-03-14T03:05:50;97288.70;;;8.44;86.67
63447;BME280;49577;49.872;6.190;2023-03-14T03:08:17;97285.33;;;8.42;86.55
63447;BME280;49577;49.872;6.190;2023-03-14T03:10:43;97276.96;;;8.41;86.61
63447;BME280;49577;49.872;6.190;2023-03-14T03:13:08;97271.94;;;8.41;86.62
63447;BME280;49577;49.872;6.190;2023-03-14T03:15:33;97275.98;;;8.40;86.74
63447;BME280;49577;49.872;6.190;2023-03-14T03:17:59;97273.20;;;8.40;86.78
63447;BME280;49577;49.872;6.190;2023-03-14T03:20:24;97273.59;;;8.40;86.75
63447;BME280;49577;49.872;6.190;2023-03-14T03:22:49;97275.34;;;8.40;86.91
63447;BME280;49577;49.872;6.190;2023-03-14T03:25:15;97274.87;;;8.39;86.83
63447;BME280;49577;49.872;6.190;2023-03-14T03:27:40;97274.54;;;8.39;86.85
63447;BME280;49577;49.872;6.190;2023-03-14T03:30:07;97272.92;;;8.39;86.97
63447;BME280;49577;49.872;6.190;2023-03-14T03:32:32;97268.39;;;8.40;86.94
63447;BME280;49577;49.872;6.190;2023-03-14T03:34:57;97263.17;;;8.40;86.95
63447;BME280;49577;49.872;6.190;2023-03-14T03:37:23;97259.55;;;8.39;87.03
63447;BME280;49577;49.872;6.190;2023-03-14T03:39:52;97262.89;;;8.39;86.99
63447;BME280;49577;49.872;6.190;2023-03-14T03:42:18;97254.11;;;8.38;87.15
63447;BME280;49577;49.872;6.190;2023-03-14T03:44:44;97256.80;;;8.37;87.39
63447;BME280;49577;49.872;6.190;2023-03-14T03:47:09;97252.95;;;8.34;87.50
63447;BME280;49577;49.872;6.190;2023-03-14T03:49:34;97246.64;;;8.33;87.47
63447;BME280;49577;49.872;6.190;2023-03-14T03:52:00;97242.61;;;8.32;87.64
63447;BME280;49577;49.872;6.190;2023-03-14T03:54:25;97242.28;;;8.29;87.74
63447;BME280;49577;49.872;6.190;2023-03-14T03:56:51;97240.86;;;8.28;87.80
63447;BME280;49577;49.872;6.190;2023-03-14T03:59:16;97226.71;;;8.27;87.96
63447;BME280;49577;49.872;6.190;2023-03-14T04:01:42;97224.81;;;8.24;88.12
63447;BME280;49577;49.872;6.190;2023-03-14T04:04:07;97224.89;;;8.22;88.12
63447;BME280;49577;49.872;6.190;2023-03-14T04:06:33;97223.42;;;8.21;88.12
63447;BME280;49577;49.872;6.190;2023-03-14T04:08:58;97218.58;;;8.19;88.17
63447;BME280;49577;49.872;6.190;2023-03-14T04:11:24;97211.52;;;8.18;88.16
63447;BME280;49577;49.872;6.190;2023-03-14T04:13:49;97215.41;;;8.17;88.10
63447;BME280;49577;49.872;6.190;2023-03-14T04:16:17;97218.92;;;8.17;87.94
63447;BME280;49577;49.872;6.190;2023-03-14T04:18:43;97216.49;;;8.17;87.82
63447;BME280;49577;49.872;6.190;2023-03-14T04:21:09;97215.49;;;8.16;87.82
63447;BME280;49577;49.872;6.190;2023-03-14T04:23:34;97215.09;;;8.15;87.78
63447;BME280;49577;49.872;6.190;2023-03-14T04:26:00;97211.98;;;8.15;87.53
63447;BME280;49577;49.872;6.190;2023-03-14T04:28:25;97217.39;;;8.15;87.42
63447;BME280;49577;49.872;6.190;2023-03-14T04:30:50;97218.80;;;8.14;87.44
63447;BME280;49577;49.872;6.190;2023-03-14T04:33:16;97215.02;;;8.14;87.18
63447;BME280;49577;49.872;6.190;2023-03-14T04:35:43;97216.71;;;8.14;87.25
63447;BME280;49577;49.872;6.190;2023-03-14T04:38:08;97212.38;;;8.14;87.17
63447;BME280;49577;49.872;6.190;2023-03-14T04:40:36;97212.98;;;8.13;87.24
63447;BME280;49577;49.872;6.190;2023-03-14T04:43:02;97211.48;;;8.13;87.24
63447;BME280;49577;49.872;6.190;2023-03-14T04:45:27;97209.77;;;8.12;87.19
63447;BME280;49577;49.872;6.190;2023-03-14T04:47:52;97214.96;;;8.13;87.21
63447;BME280;49577;49.872;6.190;2023-03-14T04:50:18;97211.66;;;8.13;86.99
63447;BME280;49577;49.872;6.190;2023-03-14T04:52:43;97205.03;;;8.13;87.12
63447;BME280;49577;49.872;6.190;2023-03-14T04:55:08;97203.79;;;8.13;87.07
63447;BME280;49577;49.872;6.190;2023-03-14T04:57:34;97200.38;;;8.14;86.95
63447;BME280;49577;49.872;6.190;2023-03-14T04:59:59;97199.96;;;8.15;86.87
63447;BME280;49577;49.872;6.190;2023-03-14T05:02:24;97195.17;;;8.16;86.75
63447;BME280;49577;49.872;6.190;2023-03-14T05:04:50;97194.41;;;8.17;86.83
63447;BME280;49577;49.872;6.190;2023-03-14T05:07:15;97193.27;;;8.18;86.70
63447;BME280;49577;49.872;6.190;2023-03-14T05:09:40;97192.20;;;8.18;86.78
63447;BME280;49577;49.872;6.190;2023-03-14T05:12:06;97193.48;;;8.19;86.73
63447;BME280;49577;49.872;6.190;2023-03-14T05:14:31;97187.86;;;8.20;86.77
63447;BME280;49577;49.872;6.190;2023-03-14T05:16:56;97191.59;;;8.21;86.85
63447;BME280;49577;49.872;6.190;2023-03-14T05:19:22;97184.95;;;8.21;87.06
63447;BME280;49577;49.872;6.190;2023-03-14T05:21:47;97188.52;;;8.20;87.06
63447;BME280;49577;49.872;6.190;2023-03-14T05:24:12;97190.24;;;8.20;87.27
63447;BME280;49577;49.872;6.190;2023-03-14T05:26:38;97185.48;;;8.19;87.52
63447;BME280;49577;49.872;6.190;2023-03-14T05:29:03;97185.67;;;8.19;87.69
63447;BME280;49577;49.872;6.190;2023-03-14T05:31:28;97181.54;;;8.19;87.77
63447;BME280;49577;49.872;6.190;2023-03-14T05:33:54;97179.89;;;8.18;87.89
63447;BME280;49577;49.872;6.190;2023-03-14T05:36:19;97174.67;;;8.18;88.05
63447;BME280;49577;49.872;6.190;2023-03-14T05:38:44;97168.66;;;8.17;88.28
63447;BME280;49577;49.872;6.190;2023-03-14T05:41:09;97171.60;;;8.15;88.52
63447;BME280;49577;49.872;6.190;2023-03-14T05:43:35;97178.24;;;8.15;88.68
63447;BME280;49577;49.872;6.190;2023-03-14T05:46:00;97172.62;;;8.14;88.79
63447;BME280;49577;49.872;6.190;2023-03-14T05:48:25;97167.67;;;8.13;89.30
63447;BME280;49577;49.872;6.190;2023-03-14T05:50:55;97169.08;;;8.10;89.27
63447;BME280;49577;49.872;6.190;2023-03-14T05:53:21;97168.80;;;8.09;89.70
63447;BME280;49577;49.872;6.190;2023-03-14T05:55:46;97167.48;;;8.07;89.98
63447;BME280;49577;49.872;6.190;2023-03-14T05:58:12;97165.15;;;8.04;90.14
63447;BME280;49577;49.872;6.190;2023-03-14T06:00:37;97164.12;;;8.04;90.33
63447;BME280;49577;49.872;6.190;2023-03-14T06:03:02;97159.50;;;8.03;90.49
63447;BME280;49577;49.872;6.190;2023-03-14T06:05:28;97162.53;;;8.02;90.66
63447;BME280;49577;49.872;6.190;2023-03-14T06:07:53;97162.29;;;8.01;90.87
63447;BME280;49577;49.872;6.190;2023-03-14T06:10:18;97160.81;;;8.00;90.96
63447;BME280;49577;49.872;6.190;2023-03-14T06:12:43;97157.88;;;8.00;91.20
63447;BME280;49577;49.872;6.190;2023-03-14T06:15:09;97156.22;;;8.01;91.11
63447;BME280;49577;49.872;6.190;2023-03-14T06:17:35;97155.36;;;8.03;91.15
63447;BME280;49577;49.872;6.190;2023-03-14T06:20:00;97150.31;;;8.05;91.18
63447;BME280;49577;49.872;6.190;2023-03-14T06:22:25;97154.23;;;8.07;91.14
63447;BME280;49577;49.872;6.190;2023-03-14T06:24:51;97149.48;;;8.10;91.13
63447;BME280;49577;49.872;6.190;2023-03-14T06:27:16;97151.23;;;8.14;91.03
63447;BME280;49577;49.872;6.190;2023-03-14T06:29:42;97153.39;;;8.17;90.89
63447;BME280;49577;49.872;6.190;2023-03-14T06:32:07;97150.85;;;8.19;90.97
63447;BME280;49577;49.872;6.190;2023-03-14T06:34:33;97155.19;;;8.21;90.82
63447;BME280;49577;49.872;6.190;2023-03-14T06:36:59;97154.83;;;8.24;90.85
63447;BME280;49577;49.872;6.190;2023-03-14T06:39:24;97158.06;;;8.26;90.78
63447;BME280;49577;49.872;6.190;2023-03-14T06:41:50;97158.71;;;8.28;90.66
63447;BME280;49577;49.872;6.190;2023-03-14T06:44:15;97157.53;;;8.32;90.70
63447;BME280;49577;49.872;6.190;2023-03-14T06:46:40;97156.33;;;8.36;90.59
63447;BME280;49577;49.872;6.190;2023-03-14T06:49:06;97156.58;;;8.41;90.52
63447;BME280;49577;49.872;6.190;2023-03-14T06:51:32;97165.52;;;8.48;90.26
63447;BME280;49577;49.872;6.190;2023-03-14T06:53:58;97169.58;;;8.54;90.05
63447;BME280;49577;49.872;6.190;2023-03-14T06:56:23;97171.99;;;8.60;89.82
63447;BME280;49577;49.872;6.190;2023-03-14T06:58:48;97173.41;;;8.62;89.70
63447;BME280;49577;49.872;6.190;2023-03-14T07:01:25;97174.49;;;8.63;89.76
63447;BME280;49577;49.872;6.190;2023-03-14T07:03:51;97188.09;;;8.67;89.79
63447;BME280;49577;49.872;6.190;2023-03-14T07:06:16;97186.11;;;8.68;89.95
63447;BME280;49577;49.872;6.190;2023-03-14T07:08:42;97184.10;;;8.67;90.01
63447;BME280;49577;49.872;6.190;2023-03-14T07:11:08;97188.30;;;8.68;90.21
63447;BME280;49577;49.872;6.190;2023-03-14T07:13:35;97183.98;;;8.73;90.35
63447;BME280;49577;49.872;6.190;2023-03-14T07:16:00;97188.22;;;8.76;90.40
63447;BME280;49577;49.872;6.190;2023-03-14T07:18:25;97189.84;;;8.81;90.31
63447;BME280;49577;49.872;6.190;2023-03-14T07:20:51;97191.17;;;8.89;90.38
63447;BME280;49577;49.872;6.190;2023-03-14T07:23:16;97188.61;;;8.97;89.98
63447;BME280;49577;49.872;6.190;2023-03-14T07:25:41;97184.34;;;9.10;89.85
63447;BME280;49577;49.872;6.190;2023-03-14T07:28:07;97183.02;;;9.29;89.58
63447;BME280;49577;49.872;6.190;2023-03-14T07:30:32;97184.80;;;9.39;89.03
63447;BME280;49577;49.872;6.190;2023-03-14T07:32:57;97185.64;;;9.41;88.80
63447;BME280;49577;49.872;6.190;2023-03-14T07:35:22;97186.37;;;9.46;88.72
63447;BME280;49577;49.872;6.190;2023-03-14T07:37:48;97185.36;;;9.50;88.55
63447;BME280;49577;49.872;6.190;2023-03-14T07:40:13;97193.39;;;9.52;88.50
63447;BME280;49577;49.872;6.190;2023-03-14T07:42:43;97191.47;;;9.54;88.37
63447;BME280;49577;49.872;6.190;2023-03-14T07:45:10;97193.06;;;9.55;88.20
63447;BME280;49577;49.872;6.190;2023-03-14T07:47:36;97192.69;;;9.61;88.22
63447;BME280;49577;49.872;6.190;2023-03-14T07:50:02;97189.03;;;9.68;88.12
63447;BME280;49577;49.872;6.190;2023-03-14T07:52:27;97192.52;;;9.75;87.72
63447;BME280;49577;49.872;6.190;2023-03-14T07:54:53;97188.16;;;9.77;87.39
63447;BME280;49577;49.872;6.190;2023-03-14T07:57:18;97192.73;;;9.80;87.24
63447;BME280;49577;49.872;6.190;2023-03-14T07:59:43;97191.65;;;9.82;87.14
63447;BME280;49577;49.872;6.190;2023-03-14T08:02:12;97192.08;;;9.80;87.19
63447;BME280;49577;49.872;6.190;2023-03-14T08:04:38;97193.57;;;9.75;87.26
63447;BME280;49577;49.872;6.190;2023-03-14T08:07:04;97193.63;;;9.66;87.05
63447;BME280;49577;49.872;6.190;2023-03-14T08:09:29;97185.99;;;9.58;87.34
63447;BME280;49577;49.872;6.190;2023-03-14T08:11:54;97185.79;;;9.57;87.46
63447;BME280;49577;49.872;6.190;2023-03-14T08:14:20;97176.75;;;9.55;87.58
63447;BME280;49577;49.872;6.190;2023-03-14T08:16:45;97182.28;;;9.55;87.59
63447;BME280;49577;49.872;6.190;2023-03-14T08:19:11;97179.15;;;9.53;87.24
63447;BME280;49577;49.872;6.190;2023-03-14T08:21:36;97183.23;;;9.51;87.20
63447;BME280;49577;49.872;6.190;2023-03-14T08:24:01;97186.64;;;9.54;87.57
63447;BME280;49577;49.872;6.190;2023-03-14T08:26:27;97185.83;;;9.55;87.37
63447;BME280;49577;49.872;6.190;2023-03-14T08:28:52;97185.20;;;9.57;87.55
63447;BME280;49577;49.872;6.190;2023-03-14T08:31:18;97189.21;;;9.63;87.55
63447;BME280;49577;49.872;6.190;2023-03-14T08:33:43;97194.64;;;9.68;87.39
63447;BME280;49577;49.872;6.190;2023-03-14T08:36:09;97191.45;;;9.70;87.39
63447;BME280;49577;49.872;6.190;2023-03-14T08:38:35;97191.51;;;9.82;87.73
63447;BME280;49577;49.872;6.190;2023-03-14T08:41:01;97197.81;;;9.89;87.62
63447;BME280;49577;49.872;6.190;2023-03-14T08:43:28;97199.45;;;9.90;87.52
63447;BME280;49577;49.872;6.190;2023-03-14T08:45:56;97198.52;;;9.98;87.88
63447;BME280;49577;49.872;6.190;2023-03-14T08:48:22;97202.56;;;10.06;87.81
63447;BME280;49577;49.872;6.190;2023-03-14T08:50:47;97205.52;;;10.13;87.59
63447;BME280;49577;49.872;6.190;2023-03-14T08:53:13;97210.26;;;10.18;87.19
63447;BME280;49577;49.872;6.190;2023-03-14T08:55:38;97208.60;;;10.30;87.45
63447;BME280;49577;49.872;6.190;2023-03-14T08:58:03;97213.65;;;10.44;87.30
63447;BME280;49577;49.872;6.190;2023-03-14T09:00:29;97213.66;;;10.60;87.10
63447;BME280;49577;49.872;6.190;2023-03-14T09:02:54;97215.66;;;10.73;86.62
63447;BME280;49577;49.872;6.190;2023-03-14T09:05:19;97218.85;;;10.82;86.36
63447;BME280;49577;49.872;6.190;2023-03-14T09:07:45;97222.73;;;10.84;85.84
63447;BME280;49577;49.872;6.190;2023-03-14T09:10:11;97225.67;;;10.79;85.60
63447;BME280;49577;49.872;6.190;2023-03-14T09:12:37;97227.55;;;10.74;85.73
63447;BME280;49577;49.872;6.190;2023-03-14T09:15:03;97232.54;;;10.70;85.64
63447;BME280;49577;49.872;6.190;2023-03-14T09:17:28;97244.48;;;10.66;85.63
63447;BME280;49577;49.872;6.190;2023-03-14T09:19:54;97282.58;;;10.58;85.85
63447;BME280;49577;49.872;6.190;2023-03-14T09:22:19;97306.77;;;10.47;83.70
63447;BME280;49577;49.872;6.190;2023-03-14T09:24:45;97339.70;;;10.29;80.88
63447;BME280;49577;49.872;6.190;2023-03-14T09:27:11;97362.33;;;10.30;79.75
63447;BME280;49577;49.872;6.190;2023-03-14T09:29:36;97375.05;;;10.32;78.36
63447;BME280;49577;49.872;6.190;2023-03-14T09:32:02;97387.44;;;10.23;77.65
63447;BME280;49577;49.872;6.190;2023-03-14T09:34:27;97405.66;;;10.13;77.33
63447;BME280;49577;49.872;6.190;2023-03-14T09:36:53;97423.55;;;10.04;77.61
63447;BME280;49577;49.872;6.190;2023-03-14T09:39:18;97440.58;;;10.00;76.77
63447;BME280;49577;49.872;6.190;2023-03-14T09:41:46;97448.17;;;9.90;75.64
63447;BME280;49577;49.872;6.190;2023-03-14T09:44:28;97459.29;;;9.82;73.81
63447;BME280;49577;49.872;6.190;2023-03-14T09:46:58;97469.64;;;9.74;73.16
63447;BME280;49577;49.872;6.190;2023-03-14T09:49:32;97481.96;;;9.69;72.44
63447;BME280;49577;49.872;6.190;2023-03-14T09:52:01;97489.23;;;9.64;71.94
63447;BME280;49577;49.872;6.190;2023-03-14T09:54:43;97494.68;;;9.63;72.24
63447;BME280;49577;49.872;6.190;2023-03-14T09:57:17;97506.70;;;9.60;72.57
63447;BME280;49577;49.872;6.190;2023-03-14T09:59:45;97524.88;;;9.56;72.61
63447;BME280;49577;49.872;6.190;2023-03-14T10:02:22;97547.77;;;9.45;72.31
63447;BME280;49577;49.872;6.190;2023-03-14T10:04:50;97562.02;;;9.30;72.16
63447;BME280;49577;49.872;6.190;2023-03-14T10:07:25;97576.37;;;9.16;72.13
63447;BME280;49577;49.872;6.190;2023-03-14T10:09:52;97582.27;;;9.08;73.09
63447;BME280;49577;49.872;6.190;2023-03-14T10:12:19;97582.95;;;8.99;72.34
63447;BME280;49577;49.872;6.190;2023-03-14T10:14:50;97591.73;;;8.90;72.49
63447;BME280;49577;49.872;6.190;2023-03-14T10:17:18;97601.92;;;8.77;72.48
63447;BME280;49577;49.872;6.190;2023-03-14T10:19:58;97610.42;;;8.67;73.24
63447;BME280;49577;49.872;6.190;2023-03-14T10:22:31;97623.05;;;8.64;73.48
63447;BME280;49577;49.872;6.190;2023-03-14T10:25:01;97630.05;;;8.72;73.49
63447;BME280;49577;49.872;6.190;2023-03-14T10:27:30;97640.03;;;9.07;72.79
63447;BME280;49577;49.872;6.190;2023-03-14T10:29:59;97646.51;;;9.79;71.83
63447;BME280;49577;49.872;6.190;2023-03-14T10:32:35;97649.90;;;10.18;70.65
63447;BME280;49577;49.872;6.190;2023-03-14T10:38:01;97662.75;;;10.48;68.94
63447;BME280;49577;49.872;6.190;2023-03-14T10:40:30;97671.38;;;10.31;68.68
63447;BME280;49577;49.872;6.190;2023-03-14T10:43:01;97684.02;;;10.15;68.64
63447;BME280;49577;49.872;6.190;2023-03-14T10:46:14;97693.25;;;9.92;68.11
63447;BME280;49577;49.872;6.190;2023-03-14T10:48:37;97702.33;;;9.90;69.38
63447;BME280;49577;49.872;6.190;2023-03-14T10:51:09;97708.07;;;9.95;68.68
63447;BME280;49577;49.872;6.190;2023-03-14T10:53:42;97714.39;;;9.78;68.63
63447;BME280;49577;49.872;6.190;2023-03-14T10:56:18;97728.25;;;9.58;68.21
63447;BME280;49577;49.872;6.190;2023-03-14T10:58:46;97740.56;;;9.72;68.83
63447;BME280;49577;49.872;6.190;2023-03-14T11:01:36;97747.89;;;10.25;69.11
63447;BME280;49577;49.872;6.190;2023-03-14T11:06:38;97754.27;;;10.73;65.16
63447;BME280;49577;49.872;6.190;2023-03-14T11:09:27;97778.85;;;10.64;65.14
63447;BME280;49577;49.872;6.190;2023-03-14T11:12:12;97784.09;;;10.40;63.88
63447;BME280;49577;49.872;6.190;2023-03-14T11:14:47;97804.63;;;10.19;64.55
63447;BME280;49577;49.872;6.190;2023-03-14T11:17:27;97823.25;;;10.09;66.08
63447;BME280;49577;49.872;6.190;2023-03-14T11:20:19;97829.73;;;9.96;65.93
63447;BME280;49577;49.872;6.190;2023-03-14T11:25:47;97861.02;;;10.09;65.84
63447;BME280;49577;49.872;6.190;2023-03-14T11:30:53;97866.86;;;10.57;63.96
63447;BME280;49577;49.872;6.190;2023-03-14T11:33:24;97868.73;;;11.13;62.33
63447;BME280;49577;49.872;6.190;2023-03-14T11:36:01;97880.36;;;11.44;59.51
63447;BME280;49577;49.872;6.190;2023-03-14T11:38:46;97884.36;;;11.92;58.71
63447;BME280;49577;49.872;6.190;2023-03-14T11:41:51;97894.75;;;12.67;56.94
63447;BME280;49577;49.872;6.190;2023-03-14T11:46:57;97909.42;;;14.43;52.42
63447;BME280;49577;49.872;6.190;2023-03-14T11:49:50;97917.05;;;15.32;50.36
63447;BME280;49577;49.872;6.190;2023-03-14T11:52:34;97918.04;;;15.24;47.79
63447;BME280;49577;49.872;6.190;2023-03-14T11:55:22;97930.61;;;15.44;49.06
63447;BME280;49577;49.872;6.190;2023-03-14T11:57:55;97941.77;;;15.45;47.43
63447;BME280;49577;49.872;6.190;2023-03-14T12:00:23;97952.44;;;15.22;47.01
63447;BME280;49577;49.872;6.190;2023-03-14T12:03:05;97952.08;;;15.19;46.00
63447;BME280;49577;49.872;6.190;2023-03-14T12:08:37;97961.40;;;16.54;41.47
63447;BME280;49577;49.872;6.190;2023-03-14T12:11:06;97970.77;;;16.87;40.30
63447;BME280;49577;49.872;6.190;2023-03-14T12:13:37;97976.95;;;17.02;39.76
63447;BME280;49577;49.872;6.190;2023-03-14T12:18:53;97984.99;;;16.53;38.98
63447;BME280;49577;49.872;6.190;2023-03-14T12:21:41;97982.31;;;16.75;37.86
63447;BME280;49577;49.872;6.190;2023-03-14T12:24:17;97983.98;;;16.73;38.94
63447;BME280;49577;49.872;6.190;2023-03-14T12:26:55;97993.00;;;16.96;39.68
63447;BME280;49577;49.872;6.190;2023-03-14T12:29:21;97998.19;;;17.36;38.93
63447;BME280;49577;49.872;6.190;2023-03-14T12:31:48;98005.67;;;16.94;39.50
63447;BME280;49577;49.872;6.190;2023-03-14T12:39:43;98026.84;;;15.32;40.44
63447;BME280;49577;49.872;6.190;2023-03-14T12:42:13;98037.23;;;14.75;42.00
63447;BME280;49577;49.872;6.190;2023-03-14T12:44:44;98045.66;;;14.43;42.03
63447;BME280;49577;49.872;6.190;2023-03-14T12:49:46;98060.08;;;13.45;43.43
63447;BME280;49577;49.872;6.190;2023-03-14T12:52:57;98067.61;;;13.02;44.71
63447;BME280;49577;49.872;6.190;2023-03-14T12:55:33;98079.79;;;12.60;44.60
63447;BME280;49577;49.872;6.190;2023-03-14T12:58:26;98085.77;;;12.05;45.03
63447;BME280;49577;49.872;6.190;2023-03-14T13:01:05;98095.23;;;11.59;46.05
63447;BME280;49577;49.872;6.190;2023-03-14T13:03:52;98098.15;;;11.28;46.87
63447;BME280;49577;49.872;6.190;2023-03-14T13:06:52;98103.22;;;10.99;47.80
63447;BME280;49577;49.872;6.190;2023-03-14T13:12:09;98108.20;;;10.62;49.40
63447;BME280;49577;49.872;6.190;2023-03-14T13:14:35;98108.91;;;10.54;49.62
63447;BME280;49577;49.872;6.190;2023-03-14T13:17:02;98109.29;;;10.45;49.50
63447;BME280;49577;49.872;6.190;2023-03-14T13:19:29;98115.41;;;10.37;49.94
63447;BME280;49577;49.872;6.190;2023-03-14T13:22:02;98116.67;;;10.24;48.86
63447;BME280;49577;49.872;6.190;2023-03-14T13:24:28;98121.79;;;10.17;49.76
63447;BME280;49577;49.872;6.190;2023-03-14T13:26:55;98125.20;;;10.24;49.84
63447;BME280;49577;49.872;6.190;2023-03-14T13:29:31;98125.23;;;10.32;49.61
63447;BME280;49577;49.872;6.190;2023-03-14T13:31:59;98126.19;;;10.40;49.44
63447;BME280;49577;49.872;6.190;2023-03-14T13:34:32;98125.47;;;10.50;49.10
63447;BME280;49577;49.872;6.190;2023-03-14T13:36:59;98122.76;;;10.71;49.29
63447;BME280;49577;49.872;6.190;2023-03-14T13:39:26;98122.14;;;10.84;48.50
63447;BME280;49577;49.872;6.190;2023-03-14T13:41:57;98124.63;;;10.92;48.64
63447;BME280;49577;49.872;6.190;2023-03-14T13:44:29;98127.03;;;10.95;48.52
63447;BME280;49577;49.872;6.190;2023-03-14T13:47:00;98125.12;;;10.95;48.32
63447;BME280;49577;49.872;6.190;2023-03-14T13:49:28;98126.42;;;11.00;47.99
63447;BME280;49577;49.872;6.190;2023-03-14T13:51:56;98130.48;;;11.17;48.62
63447;BME280;49577;49.872;6.190;2023-03-14T13:54:22;98134.23;;;11.45;47.93